sensor_id;sensor_type;location;lat;lon;timestamp;temperature;humidity
33903;DHT22;20194;50.950;5.346;2023-07-13T00:01:44;18.00;16.40
33903;DHT22;20194;50.950;5.346;2023-07-13T00:04:11;18.10;13.50
33903;DHT22;20194;50.950;5.346;2023-07-13T00:06:37;18.10;13.80
33903;DHT22;20194;50.950;5.346;2023-07-13T00:09:03;18.20;12.50
33903;DHT22;20194;50.950;5.346;2023-07-13T00:11:28;18.10;13.60
33903;DHT22;20194;50.950;5.346;2023-07-13T00:13:55;18.00;16.60
33903;DHT22;20194;50.950;5.346;2023-07-13T00:16:21;17.80;19.20
33903;DHT22;20194;50.950;5.346;2023-07-13T00:18:47;17.60;20.20
33903;DHT22;20194;50.950;5.346;2023-07-13T00:21:12;17.60;21.90
33903;DHT22;20194;50.950;5.346;2023-07-13T00:23:41;17.70;20.60
33903;DHT22;20194;50.950;5.346;2023-07-13T00:26:09;17.70;21.20
33903;DHT22;20194;50.950;5.346;2023-07-13T00:28:36;17.60;21.50
33903;DHT22;20194;50.950;5.346;2023-07-13T00:31:02;17.80;20.60
33903;DHT22;20194;50.950;5.346;2023-07-13T00:33:29;17.80;18.00
33903;DHT22;20194;50.950;5.346;2023-07-13T00:35:55;17.70;20.70
33903;DHT22;20194;50.950;5.346;2023-07-13T00:38:22;17.50;23.50
33903;DHT22;20194;50.950;5.346;2023-07-13T00:40:47;17.50;24.10
33903;DHT22;20194;50.950;5.346;2023-07-13T00:43:19;17.60;22.70
33903;DHT22;20194;50.950;5.346;2023-07-13T00:48:21;17.50;24.90
33903;DHT22;20194;50.950;5.346;2023-07-13T00:50:50;17.60;24.00
33903;DHT22;20194;50.950;5.346;2023-07-13T00:53:18;17.70;23.00
33903;DHT22;20194;50.950;5.346;2023-07-13T00:55:44;17.80;23.30
33903;DHT22;20194;50.950;5.346;2023-07-13T00:58:10;17.50;27.50
33903;DHT22;20194;50.950;5.346;2023-07-13T01:00:38;17.50;28.90
33903;DHT22;20194;50.950;5.346;2023-07-13T01:03:04;17.40;30.10
33903;DHT22;20194;50.950;5.346;2023-07-13T01:05:33;17.40;30.40
33903;DHT22;20194;50.950;5.346;2023-07-13T01:08:00;17.40;31.00
33903;DHT22;20194;50.950;5.346;2023-07-13T01:10:27;17.30;32.00
33903;DHT22;20194;50.950;5.346;2023-07-13T01:12:53;17.30;32.40
33903;DHT22;20194;50.950;5.346;2023-07-13T01:18:07;17.40;33.20
33903;DHT22;20194;50.950;5.346;2023-07-13T01:20:33;17.40;34.70
33903;DHT22;20194;50.950;5.346;2023-07-13T01:23:11;17.40;33.90
33903;DHT22;20194;50.950;5.346;2023-07-13T01:25:38;17.60;29.80
33903;DHT22;20194;50.950;5.346;2023-07-13T01:28:06;17.40;33.40
33903;DHT22;20194;50.950;5.346;2023-07-13T01:30:32;17.50;31.90
33903;DHT22;20194;50.950;5.346;2023-07-13T01:32:58;17.30;36.10
33903;DHT22;20194;50.950;5.346;2023-07-13T01:35:24;17.30;36.80
33903;DHT22;20194;50.950;5.346;2023-07-13T01:37:52;17.20;37.30
33903;DHT22;20194;50.950;5.346;2023-07-13T01:40:19;17.10;38.80
33903;DHT22;20194;50.950;5.346;2023-07-13T01:42:45;17.10;39.20
33903;DHT22;20194;50.950;5.346;2023-07-13T01:45:11;17.30;37.60
33903;DHT22;20194;50.950;5.346;2023-07-13T01:47:37;17.10;39.70
33903;DHT22;20194;50.950;5.346;2023-07-13T01:50:03;17.10;40.30
33903;DHT22;20194;50.950;5.346;2023-07-13T01:52:29;17.10;40.60
33903;DHT22;20194;50.950;5.346;2023-07-13T01:54:55;17.20;40.20
33903;DHT22;20194;50.950;5.346;2023-07-13T01:57:21;17.00;42.40
33903;DHT22;20194;50.950;5.346;2023-07-13T01:59:46;17.10;42.90
33903;DHT22;20194;50.950;5.346;2023-07-13T02:02:12;17.10;41.70
33903;DHT22;20194;50.950;5.346;2023-07-13T02:04:37;17.20;42.00
33903;DHT22;20194;50.950;5.346;2023-07-13T02:07:03;17.10;42.00
33903;DHT22;20194;50.950;5.346;2023-07-13T02:09:29;17.00;42.70
33903;DHT22;20194;50.950;5.346;2023-07-13T02:11:55;17.10;43.80
33903;DHT22;20194;50.950;5.346;2023-07-13T02:14:20;16.90;45.50
33903;DHT22;20194;50.950;5.346;2023-07-13T02:16:46;16.80;47.60
33903;DHT22;20194;50.950;5.346;2023-07-13T02:19:14;16.90;46.80
33903;DHT22;20194;50.950;5.346;2023-07-13T02:21:40;16.80;48.00
33903;DHT22;20194;50.950;5.346;2023-07-13T02:24:05;16.90;46.20
33903;DHT22;20194;50.950;5.346;2023-07-13T02:26:32;16.90;47.40
33903;DHT22;20194;50.950;5.346;2023-07-13T02:28:58;16.90;48.30
33903;DHT22;20194;50.950;5.346;2023-07-13T02:31:24;16.90;47.90
33903;DHT22;20194;50.950;5.346;2023-07-13T02:33:50;16.80;48.70
33903;DHT22;20194;50.950;5.346;2023-07-13T02:36:16;16.80;49.00
33903;DHT22;20194;50.950;5.346;2023-07-13T02:38:42;16.60;51.40
33903;DHT22;20194;50.950;5.346;2023-07-13T02:41:08;16.60;51.90
33903;DHT22;20194;50.950;5.346;2023-07-13T02:43:35;16.80;50.70
33903;DHT22;20194;50.950;5.346;2023-07-13T02:46:01;16.70;50.90
33903;DHT22;20194;50.950;5.346;2023-07-13T02:48:33;16.70;51.10
33903;DHT22;20194;50.950;5.346;2023-07-13T02:50:58;16.60;52.50
33903;DHT22;20194;50.950;5.346;2023-07-13T02:53:24;16.50;52.70
33903;DHT22;20194;50.950;5.346;2023-07-13T02:55:50;16.50;53.30
33903;DHT22;20194;50.950;5.346;2023-07-13T02:58:16;16.60;53.40
33903;DHT22;20194;50.950;5.346;2023-07-13T03:00:46;16.60;53.40
33903;DHT22;20194;50.950;5.346;2023-07-13T03:03:14;16.60;53.60
33903;DHT22;20194;50.950;5.346;2023-07-13T03:05:42;16.50;55.60
33903;DHT22;20194;50.950;5.346;2023-07-13T03:08:09;16.60;53.60
33903;DHT22;20194;50.950;5.346;2023-07-13T03:10:35;16.70;54.00
33903;DHT22;20194;50.950;5.346;2023-07-13T03:13:01;16.70;54.10
33903;DHT22;20194;50.950;5.346;2023-07-13T03:15:27;16.70;54.50
33903;DHT22;20194;50.950;5.346;2023-07-13T03:17:53;16.80;52.20
33903;DHT22;20194;50.950;5.346;2023-07-13T03:20:19;16.60;54.90
33903;DHT22;20194;50.950;5.346;2023-07-13T03:22:45;16.60;56.30
33903;DHT22;20194;50.950;5.346;2023-07-13T03:25:11;16.70;55.60
33903;DHT22;20194;50.950;5.346;2023-07-13T03:27:37;16.50;57.10
33903;DHT22;20194;50.950;5.346;2023-07-13T03:30:04;16.70;56.10
33903;DHT22;20194;50.950;5.346;2023-07-13T03:32:31;16.60;55.10
33903;DHT22;20194;50.950;5.346;2023-07-13T03:34:56;16.70;55.20
33903;DHT22;20194;50.950;5.346;2023-07-13T03:37:22;16.60;56.50
33903;DHT22;20194;50.950;5.346;2023-07-13T03:39:48;16.60;55.50
33903;DHT22;20194;50.950;5.346;2023-07-13T03:42:14;16.70;55.80
33903;DHT22;20194;50.950;5.346;2023-07-13T03:44:40;16.70;55.40
33903;DHT22;20194;50.950;5.346;2023-07-13T03:47:07;16.70;55.80
33903;DHT22;20194;50.950;5.346;2023-07-13T03:49:34;16.70;57.00
33903;DHT22;20194;50.950;5.346;2023-07-13T03:52:00;16.70;57.10
33903;DHT22;20194;50.950;5.346;2023-07-13T03:54:27;16.60;58.30
33903;DHT22;20194;50.950;5.346;2023-07-13T03:56:52;16.70;57.20
33903;DHT22;20194;50.950;5.346;2023-07-13T03:59:18;16.80;56.30
33903;DHT22;20194;50.950;5.346;2023-07-13T04:01:44;16.70;57.00
33903;DHT22;20194;50.950;5.346;2023-07-13T04:04:10;16.90;56.20
33903;DHT22;20194;50.950;5.346;2023-07-13T04:06:36;17.00;55.00
33903;DHT22;20194;50.950;5.346;2023-07-13T04:09:03;16.90;55.70
33903;DHT22;20194;50.950;5.346;2023-07-13T04:11:34;16.80;56.90
33903;DHT22;20194;50.950;5.346;2023-07-13T04:14:02;16.70;58.10
33903;DHT22;20194;50.950;5.346;2023-07-13T04:16:28;16.60;59.50
33903;DHT22;20194;50.950;5.346;2023-07-13T04:18:55;16.50;61.20
33903;DHT22;20194;50.950;5.346;2023-07-13T04:21:25;16.50;62.60
33903;DHT22;20194;50.950;5.346;2023-07-13T04:23:52;16.60;61.00
33903;DHT22;20194;50.950;5.346;2023-07-13T04:26:19;16.60;60.30
33903;DHT22;20194;50.950;5.346;2023-07-13T04:28:47;16.70;59.70
33903;DHT22;20194;50.950;5.346;2023-07-13T04:31:13;16.60;59.80
33903;DHT22;20194;50.950;5.346;2023-07-13T04:33:39;16.60;60.00
33903;DHT22;20194;50.950;5.346;2023-07-13T04:36:05;16.60;60.10
33903;DHT22;20194;50.950;5.346;2023-07-13T04:38:34;16.60;62.10
33903;DHT22;20194;50.950;5.346;2023-07-13T04:41:02;16.60;61.70
33903;DHT22;20194;50.950;5.346;2023-07-13T04:43:29;16.70;60.00
33903;DHT22;20194;50.950;5.346;2023-07-13T04:45:55;16.80;60.50
33903;DHT22;20194;50.950;5.346;2023-07-13T04:48:22;16.70;59.90
33903;DHT22;20194;50.950;5.346;2023-07-13T04:50:53;16.70;60.20
33903;DHT22;20194;50.950;5.346;2023-07-13T04:53:19;16.70;61.60
33903;DHT22;20194;50.950;5.346;2023-07-13T04:55:44;16.60;61.70
33903;DHT22;20194;50.950;5.346;2023-07-13T04:58:10;16.60;61.80
33903;DHT22;20194;50.950;5.346;2023-07-13T05:00:36;16.70;60.90
33903;DHT22;20194;50.950;5.346;2023-07-13T05:03:03;16.80;60.30
33903;DHT22;20194;50.950;5.346;2023-07-13T05:05:29;16.90;59.50
33903;DHT22;20194;50.950;5.346;2023-07-13T05:07:55;16.80;61.40
33903;DHT22;20194;50.950;5.346;2023-07-13T05:10:20;16.60;63.50
33903;DHT22;20194;50.950;5.346;2023-07-13T05:12:46;16.70;64.30
33903;DHT22;20194;50.950;5.346;2023-07-13T05:15:12;16.80;62.90
33903;DHT22;20194;50.950;5.346;2023-07-13T05:17:38;16.90;62.00
33903;DHT22;20194;50.950;5.346;2023-07-13T05:20:07;16.80;63.40
33903;DHT22;20194;50.950;5.346;2023-07-13T05:22:33;16.70;64.10
33903;DHT22;20194;50.950;5.346;2023-07-13T05:25:01;16.70;64.90
33903;DHT22;20194;50.950;5.346;2023-07-13T05:27:26;16.90;63.90
33903;DHT22;20194;50.950;5.346;2023-07-13T05:29:52;16.80;64.00
33903;DHT22;20194;50.950;5.346;2023-07-13T05:32:18;16.90;64.80
33903;DHT22;20194;50.950;5.346;2023-07-13T05:34:44;16.90;63.70
33903;DHT22;20194;50.950;5.346;2023-07-13T05:37:10;16.90;64.50
33903;DHT22;20194;50.950;5.346;2023-07-13T05:39:36;17.00;63.80
33903;DHT22;20194;50.950;5.346;2023-07-13T05:42:02;17.00;63.90
33903;DHT22;20194;50.950;5.346;2023-07-13T05:44:28;17.10;63.70
33903;DHT22;20194;50.950;5.346;2023-07-13T05:46:53;17.20;62.30
33903;DHT22;20194;50.950;5.346;2023-07-13T05:49:21;17.10;62.60
33903;DHT22;20194;50.950;5.346;2023-07-13T05:51:47;17.00;64.20
33903;DHT22;20194;50.950;5.346;2023-07-13T05:54:13;17.00;65.90
33903;DHT22;20194;50.950;5.346;2023-07-13T05:56:39;17.00;66.30
33903;DHT22;20194;50.950;5.346;2023-07-13T05:59:04;16.90;67.10
33903;DHT22;20194;50.950;5.346;2023-07-13T06:01:30;17.00;66.00
33903;DHT22;20194;50.950;5.346;2023-07-13T06:03:56;16.90;67.60
33903;DHT22;20194;50.950;5.346;2023-07-13T06:06:22;17.00;67.50
33903;DHT22;20194;50.950;5.346;2023-07-13T06:08:48;16.90;68.30
33903;DHT22;20194;50.950;5.346;2023-07-13T06:11:17;17.10;67.60
33903;DHT22;20194;50.950;5.346;2023-07-13T06:13:43;17.30;66.40
33903;DHT22;20194;50.950;5.346;2023-07-13T06:16:09;17.40;64.60
33903;DHT22;20194;50.950;5.346;2023-07-13T06:18:36;17.30;65.30
33903;DHT22;20194;50.950;5.346;2023-07-13T06:21:11;17.30;65.70
33903;DHT22;20194;50.950;5.346;2023-07-13T06:23:37;17.30;67.20
33903;DHT22;20194;50.950;5.346;2023-07-13T06:26:04;17.50;65.20
33903;DHT22;20194;50.950;5.346;2023-07-13T06:28:31;17.70;63.30
33903;DHT22;20194;50.950;5.346;2023-07-13T06:30:57;18.00;59.20
33903;DHT22;20194;50.950;5.346;2023-07-13T06:33:23;17.90;59.70
33903;DHT22;20194;50.950;5.346;2023-07-13T06:35:49;17.80;60.80
33903;DHT22;20194;50.950;5.346;2023-07-13T06:38:15;17.80;60.10
33903;DHT22;20194;50.950;5.346;2023-07-13T06:40:41;17.80;61.30
33903;DHT22;20194;50.950;5.346;2023-07-13T06:43:07;17.70;62.70
33903;DHT22;20194;50.950;5.346;2023-07-13T06:45:40;17.70;62.40
33903;DHT22;20194;50.950;5.346;2023-07-13T06:48:06;17.80;61.20
33903;DHT22;20194;50.950;5.346;2023-07-13T06:50:33;18.00;60.40
33903;DHT22;20194;50.950;5.346;2023-07-13T06:52:59;18.00;59.40
33903;DHT22;20194;50.950;5.346;2023-07-13T06:55:25;18.00;59.50
33903;DHT22;20194;50.950;5.346;2023-07-13T06:57:51;18.10;59.30
33903;DHT22;20194;50.950;5.346;2023-07-13T07:00:17;18.00;58.90
33903;DHT22;20194;50.950;5.346;2023-07-13T07:02:43;18.00;59.30
33903;DHT22;20194;50.950;5.346;2023-07-13T07:05:09;18.00;59.40
33903;DHT22;20194;50.950;5.346;2023-07-13T07:07:35;18.10;59.00
33903;DHT22;20194;50.950;5.346;2023-07-13T07:10:01;18.20;58.40
33903;DHT22;20194;50.950;5.346;2023-07-13T07:12:28;18.20;58.20
33903;DHT22;20194;50.950;5.346;2023-07-13T07:14:55;18.30;57.10
33903;DHT22;20194;50.950;5.346;2023-07-13T07:17:20;18.30;57.40
33903;DHT22;20194;50.950;5.346;2023-07-13T07:19:46;18.20;56.90
33903;DHT22;20194;50.950;5.346;2023-07-13T07:22:12;18.20;57.50
33903;DHT22;20194;50.950;5.346;2023-07-13T07:24:38;18.30;56.90
33903;DHT22;20194;50.950;5.346;2023-07-13T07:27:03;18.30;56.50
33903;DHT22;20194;50.950;5.346;2023-07-13T07:29:29;18.40;56.90
33903;DHT22;20194;50.950;5.346;2023-07-13T07:31:55;18.50;55.00
33903;DHT22;20194;50.950;5.346;2023-07-13T07:34:21;18.60;54.50
33903;DHT22;20194;50.950;5.346;2023-07-13T07:36:46;18.60;52.90
33903;DHT22;20194;50.950;5.346;2023-07-13T07:39:12;18.80;52.70
33903;DHT22;20194;50.950;5.346;2023-07-13T07:41:38;18.80;53.30
33903;DHT22;20194;50.950;5.346;2023-07-13T07:44:04;18.60;53.30
33903;DHT22;20194;50.950;5.346;2023-07-13T07:46:30;18.60;54.30
33903;DHT22;20194;50.950;5.346;2023-07-13T07:48:56;18.60;54.30
33903;DHT22;20194;50.950;5.346;2023-07-13T07:51:22;18.70;54.60
33903;DHT22;20194;50.950;5.346;2023-07-13T07:53:48;18.70;53.70
33903;DHT22;20194;50.950;5.346;2023-07-13T07:56:14;18.80;53.40
33903;DHT22;20194;50.950;5.346;2023-07-13T07:58:42;18.90;51.80
33903;DHT22;20194;50.950;5.346;2023-07-13T08:01:08;18.90;52.00
33903;DHT22;20194;50.950;5.346;2023-07-13T08:03:34;19.00;52.50
33903;DHT22;20194;50.950;5.346;2023-07-13T08:06:00;19.00;52.70
33903;DHT22;20194;50.950;5.346;2023-07-13T08:08:26;19.10;51.40
33903;DHT22;20194;50.950;5.346;2023-07-13T08:10:52;19.10;51.40
33903;DHT22;20194;50.950;5.346;2023-07-13T08:13:18;19.10;51.00
33903;DHT22;20194;50.950;5.346;2023-07-13T08:15:43;19.20;49.70
33903;DHT22;20194;50.950;5.346;2023-07-13T08:18:09;19.40;48.70
33903;DHT22;20194;50.950;5.346;2023-07-13T08:20:38;19.50;47.70
33903;DHT22;20194;50.950;5.346;2023-07-13T08:23:05;19.60;47.90
33903;DHT22;20194;50.950;5.346;2023-07-13T08:25:31;19.50;46.50
33903;DHT22;20194;50.950;5.346;2023-07-13T08:27:57;19.60;46.60
33903;DHT22;20194;50.950;5.346;2023-07-13T08:30:22;19.80;44.50
33903;DHT22;20194;50.950;5.346;2023-07-13T08:32:48;19.70;43.40
33903;DHT22;20194;50.950;5.346;2023-07-13T08:35:15;19.80;42.00
33903;DHT22;20194;50.950;5.346;2023-07-13T08:37:41;19.70;44.90
33903;DHT22;20194;50.950;5.346;2023-07-13T08:40:10;19.90;44.80
33903;DHT22;20194;50.950;5.346;2023-07-13T08:42:53;20.10;40.10
33903;DHT22;20194;50.950;5.346;2023-07-13T08:48:17;19.80;40.70
33903;DHT22;20194;50.950;5.346;2023-07-13T08:51:00;20.00;41.90
33903;DHT22;20194;50.950;5.346;2023-07-13T08:53:38;19.90;40.00
33903;DHT22;20194;50.950;5.346;2023-07-13T08:56:11;20.00;40.90
33903;DHT22;20194;50.950;5.346;2023-07-13T08:58:41;20.00;39.80
33903;DHT22;20194;50.950;5.346;2023-07-13T09:04:11;20.40;36.20
33903;DHT22;20194;50.950;5.346;2023-07-13T09:14:49;21.30;24.30
33903;DHT22;20194;50.950;5.346;2023-07-13T09:17:23;21.50;19.70
33903;DHT22;20194;50.950;5.346;2023-07-13T09:22:39;21.70;15.80
33903;DHT22;20194;50.950;5.346;2023-07-13T09:25:31;21.80;10.50
33903;DHT22;20194;50.950;5.346;2023-07-13T09:28:00;22.30;7.90
33903;DHT22;20194;50.950;5.346;2023-07-13T09:31:03;22.60;1.10
33903;DHT22;20194;50.950;5.346;2023-07-13T09:33:21;22.70;1.00
33903;DHT22;20194;50.950;5.346;2023-07-13T09:35:46;22.80;1.00
33903;DHT22;20194;50.950;5.346;2023-07-13T09:38:14;22.90;1.00
33903;DHT22;20194;50.950;5.346;2023-07-13T09:40:51;23.00;1.00
33903;DHT22;20194;50.950;5.346;2023-07-13T09:43:21;23.00;1.00
33903;DHT22;20194;50.950;5.346;2023-07-13T09:45:47;22.70;1.00
33903;DHT22;20194;50.950;5.346;2023-07-13T09:48:14;22.50;1.00
33903;DHT22;20194;50.950;5.346;2023-07-13T09:50:41;22.50;1.00
33903;DHT22;20194;50.950;5.346;2023-07-13T09:53:15;22.20;1.00
33903;DHT22;20194;50.950;5.346;2023-07-13T09:55:42;22.00;1.00
33903;DHT22;20194;50.950;5.346;2023-07-13T09:58:17;21.90;1.00
33903;DHT22;20194;50.950;5.346;2023-07-13T10:00:55;22.20;1.00
33903;DHT22;20194;50.950;5.346;2023-07-13T10:03:28;22.60;1.00
33903;DHT22;20194;50.950;5.346;2023-07-13T10:06:03;22.50;1.00
33903;DHT22;20194;50.950;5.346;2023-07-13T10:08:30;22.90;1.00
33903;DHT22;20194;50.950;5.346;2023-07-13T10:11:12;23.30;1.00
33903;DHT22;20194;50.950;5.346;2023-07-13T10:13:45;23.80;1.00
33903;DHT22;20194;50.950;5.346;2023-07-13T10:16:15;23.70;1.00
33903;DHT22;20194;50.950;5.346;2023-07-13T10:18:53;23.60;1.00
33903;DHT22;20194;50.950;5.346;2023-07-13T10:21:23;23.90;1.00
33903;DHT22;20194;50.950;5.346;2023-07-13T10:23:58;23.70;1.00
33903;DHT22;20194;50.950;5.346;2023-07-13T10:26:32;23.80;1.00
33903;DHT22;20194;50.950;5.346;2023-07-13T10:29:03;23.60;1.00
33903;DHT22;20194;50.950;5.346;2023-07-13T10:31:30;23.60;1.00
33903;DHT22;20194;50.950;5.346;2023-07-13T10:33:57;23.70;1.00
33903;DHT22;20194;50.950;5.346;2023-07-13T10:39:00;23.40;1.00
33903;DHT22;20194;50.950;5.346;2023-07-13T10:41:30;23.70;1.00
33903;DHT22;20194;50.950;5.346;2023-07-13T10:43:57;24.00;1.00
33903;DHT22;20194;50.950;5.346;2023-07-13T10:46:26;24.00;1.00
33903;DHT22;20194;50.950;5.346;2023-07-13T10:48:59;24.00;1.00
33903;DHT22;20194;50.950;5.346;2023-07-13T10:51:27;23.80;1.00
33903;DHT22;20194;50.950;5.346;2023-07-13T10:54:26;23.40;1.00
33903;DHT22;20194;50.950;5.346;2023-07-13T10:57:17;23.20;1.00
33903;DHT22;20194;50.950;5.346;2023-07-13T11:02:38;22.50;1.00
33903;DHT22;20194;50.950;5.346;2023-07-13T11:08:02;23.20;1.00
33903;DHT22;20194;50.950;5.346;2023-07-13T11:10:51;23.40;1.00
33903;DHT22;20194;50.950;5.346;2023-07-13T11:18:52;23.60;1.00
33903;DHT22;20194;50.950;5.346;2023-07-13T11:21:19;23.60;1.00
33903;DHT22;20194;50.950;5.346;2023-07-13T11:23:52;23.60;1.00
33903;DHT22;20194;50.950;5.346;2023-07-13T11:26:50;23.50;1.00
33903;DHT22;20194;50.950;5.346;2023-07-13T11:31:58;24.20;1.00
33903;DHT22;20194;50.950;5.346;2023-07-13T11:34:31;24.00;1.00
33903;DHT22;20194;50.950;5.346;2023-07-13T11:36:59;23.60;1.00
33903;DHT22;20194;50.950;5.346;2023-07-13T11:39:37;23.70;1.00
33903;DHT22;20194;50.950;5.346;2023-07-13T11:42:05;24.10;1.00
33903;DHT22;20194;50.950;5.346;2023-07-13T11:44:33;24.30;1.00
33903;DHT22;20194;50.950;5.346;2023-07-13T11:47:08;24.20;1.00
33903;DHT22;20194;50.950;5.346;2023-07-13T11:49:42;24.10;1.00
33903;DHT22;20194;50.950;5.346;2023-07-13T11:52:20;24.30;1.00
33903;DHT22;20194;50.950;5.346;2023-07-13T11:54:55;24.30;1.00
33903;DHT22;20194;50.950;5.346;2023-07-13T11:57:34;24.40;1.00
33903;DHT22;20194;50.950;5.346;2023-07-13T12:00:03;24.60;1.00
33903;DHT22;20194;50.950;5.346;2023-07-13T12:02:43;24.40;1.00
33903;DHT22;20194;50.950;5.346;2023-07-13T12:05:12;24.30;1.00
33903;DHT22;20194;50.950;5.346;2023-07-13T12:07:39;24.10;1.00
33903;DHT22;20194;50.950;5.346;2023-07-13T12:10:20;24.10;1.00
33903;DHT22;20194;50.950;5.346;2023-07-13T12:12:52;24.10;1.00
33903;DHT22;20194;50.950;5.346;2023-07-13T12:15:19;23.90;1.00
33903;DHT22;20194;50.950;5.346;2023-07-13T12:17:45;23.80;1.00
33903;DHT22;20194;50.950;5.346;2023-07-13T12:20:26;23.60;1.00
33903;DHT22;20194;50.950;5.346;2023-07-13T12:22:53;23.60;1.00
33903;DHT22;20194;50.950;5.346;2023-07-13T12:25:20;23.70;1.00
33903;DHT22;20194;50.950;5.346;2023-07-13T12:27:48;23.90;1.00
33903;DHT22;20194;50.950;5.346;2023-07-13T12:30:27;24.10;1.00
33903;DHT22;20194;50.950;5.346;2023-07-13T12:33:11;24.40;1.00
33903;DHT22;20194;50.950;5.346;2023-07-13T12:35:46;24.40;1.00
33903;DHT22;20194;50.950;5.346;2023-07-13T12:38:12;24.50;1.00
33903;DHT22;20194;50.950;5.346;2023-07-13T12:40:39;24.30;1.00
33903;DHT22;20194;50.950;5.346;2023-07-13T12:43:14;24.10;1.00
33903;DHT22;20194;50.950;5.346;2023-07-13T12:46:36;24.30;1.00
33903;DHT22;20194;50.950;5.346;2023-07-13T12:48:43;24.10;1.00
33903;DHT22;20194;50.950;5.346;2023-07-13T12:51:13;23.90;1.00
33903;DHT22;20194;50.950;5.346;2023-07-13T12:53:47;23.90;1.00
33903;DHT22;20194;50.950;5.346;2023-07-13T12:56:23;24.00;1.00
33903;DHT22;20194;50.950;5.346;2023-07-13T12:58:50;24.20;1.00
33903;DHT22;20194;50.950;5.346;2023-07-13T13:01:21;24.10;1.00
33903;DHT22;20194;50.950;5.346;2023-07-13T13:03:50;24.20;1.00
33903;DHT22;20194;50.950;5.346;2023-07-13T13:08:49;23.70;1.00
33903;DHT22;20194;50.950;5.346;2023-07-13T13:11:16;23.60;1.00
33903;DHT22;20194;50.950;5.346;2023-07-13T13:13:42;23.50;1.00
33903;DHT22;20194;50.950;5.346;2023-07-13T13:19:00;23.50;1.00
33903;DHT22;20194;50.950;5.346;2023-07-13T13:21:28;23.40;1.00
33903;DHT22;20194;50.950;5.346;2023-07-13T13:23:53;23.40;1.00
33903;DHT22;20194;50.950;5.346;2023-07-13T13:26:21;23.20;1.00
33903;DHT22;20194;50.950;5.346;2023-07-13T13:28:47;23.00;1.00
33903;DHT22;20194;50.950;5.346;2023-07-13T13:31:14;22.60;1.00
33903;DHT22;20194;50.950;5.346;2023-07-13T13:33:42;21.90;1.00
33903;DHT22;20194;50.950;5.346;2023-07-13T13:36:19;21.60;1.00
33903;DHT22;20194;50.950;5.346;2023-07-13T13:38:46;21.50;1.00
33903;DHT22;20194;50.950;5.346;2023-07-13T13:41:13;21.10;4.70
33903;DHT22;20194;50.950;5.346;2023-07-13T13:43:41;21.20;8.10
33903;DHT22;20194;50.950;5.346;2023-07-13T13:46:20;21.40;2.60
33903;DHT22;20194;50.950;5.346;2023-07-13T13:48:48;21.40;1.00
33903;DHT22;20194;50.950;5.346;2023-07-13T13:51:23;21.20;2.50
33903;DHT22;20194;50.950;5.346;2023-07-13T13:53:50;21.10;4.70
33903;DHT22;20194;50.950;5.346;2023-07-13T13:56:18;21.20;5.70
33903;DHT22;20194;50.950;5.346;2023-07-13T13:58:44;21.10;8.10
33903;DHT22;20194;50.950;5.346;2023-07-13T14:01:17;21.20;6.10
33903;DHT22;20194;50.950;5.346;2023-07-13T14:03:44;20.80;12.40
33903;DHT22;20194;50.950;5.346;2023-07-13T14:06:14;20.80;15.90
33903;DHT22;20194;50.950;5.346;2023-07-13T14:08:40;20.70;17.50
33903;DHT22;20194;50.950;5.346;2023-07-13T14:11:11;20.60;17.40
33903;DHT22;20194;50.950;5.346;2023-07-13T14:13:44;20.60;17.50
33903;DHT22;20194;50.950;5.346;2023-07-13T14:16:15;20.70;17.30
33903;DHT22;20194;50.950;5.346;2023-07-13T14:18:43;20.80;16.00
33903;DHT22;20194;50.950;5.346;2023-07-13T14:21:14;21.00;14.80
33903;DHT22;20194;50.950;5.346;2023-07-13T14:23:41;21.30;11.20
33903;DHT22;20194;50.950;5.346;2023-07-13T14:26:14;21.30;10.30
33903;DHT22;20194;50.950;5.346;2023-07-13T14:28:58;21.40;8.30
33903;DHT22;20194;50.950;5.346;2023-07-13T14:31:26;21.50;8.60
33903;DHT22;20194;50.950;5.346;2023-07-13T14:33:54;21.60;7.60
33903;DHT22;20194;50.950;5.346;2023-07-13T14:36:31;21.50;7.90
33903;DHT22;20194;50.950;5.346;2023-07-13T14:38:58;21.70;5.70
33903;DHT22;20194;50.950;5.346;2023-07-13T14:41:25;21.70;5.90
33903;DHT22;20194;50.950;5.346;2023-07-13T14:43:51;21.90;5.80
33903;DHT22;20194;50.950;5.346;2023-07-13T14:46:31;21.90;1.70
33903;DHT22;20194;50.950;5.346;2023-07-13T14:49:04;21.80;4.50
33903;DHT22;20194;50.950;5.346;2023-07-13T14:51:31;21.60;8.60
33903;DHT22;20194;50.950;5.346;2023-07-13T14:54:00;21.50;11.80
33903;DHT22;20194;50.950;5.346;2023-07-13T14:56:26;21.20;12.70
33903;DHT22;20194;50.950;5.346;2023-07-13T14:58:52;21.10;15.70
33903;DHT22;20194;50.950;5.346;2023-07-13T15:01:18;21.30;12.90
33903;DHT22;20194;50.950;5.346;2023-07-13T15:03:47;21.60;10.20
33903;DHT22;20194;50.950;5.346;2023-07-13T15:06:14;21.80;1.80
33903;DHT22;20194;50.950;5.346;2023-07-13T15:08:40;22.10;1.00
33903;DHT22;20194;50.950;5.346;2023-07-13T15:11:09;22.40;1.00
33903;DHT22;20194;50.950;5.346;2023-07-13T15:13:42;22.50;1.00
33903;DHT22;20194;50.950;5.346;2023-07-13T15:16:18;22.80;1.00
33903;DHT22;20194;50.950;5.346;2023-07-13T15:18:44;22.70;1.00
33903;DHT22;20194;50.950;5.346;2023-07-13T15:21:14;22.90;1.00
33903;DHT22;20194;50.950;5.346;2023-07-13T15:23:41;22.90;1.00
33903;DHT22;20194;50.950;5.346;2023-07-13T15:26:15;23.20;1.00
33903;DHT22;20194;50.950;5.346;2023-07-13T15:28:44;23.20;1.00
33903;DHT22;20194;50.950;5.346;2023-07-13T15:31:36;23.30;1.00
33903;DHT22;20194;50.950;5.346;2023-07-13T15:34:13;23.50;1.00
33903;DHT22;20194;50.950;5.346;2023-07-13T15:36:40;23.30;1.00
33903;DHT22;20194;50.950;5.346;2023-07-13T15:39:06;23.00;1.00
33903;DHT22;20194;50.950;5.346;2023-07-13T15:41:33;23.00;1.00
33903;DHT22;20194;50.950;5.346;2023-07-13T15:44:00;23.10;1.00
33903;DHT22;20194;50.950;5.346;2023-07-13T15:46:30;23.20;1.00
33903;DHT22;20194;50.950;5.346;2023-07-13T15:48:58;23.30;1.00
33903;DHT22;20194;50.950;5.346;2023-07-13T15:51:30;23.50;1.00
33903;DHT22;20194;50.950;5.346;2023-07-13T15:54:04;23.20;1.00
33903;DHT22;20194;50.950;5.346;2023-07-13T15:56:35;23.20;1.00
33903;DHT22;20194;50.950;5.346;2023-07-13T15:59:02;23.30;1.00
33903;DHT22;20194;50.950;5.346;2023-07-13T16:01:30;23.30;1.00
33903;DHT22;20194;50.950;5.346;2023-07-13T16:03:56;23.30;1.00
33903;DHT22;20194;50.950;5.346;2023-07-13T16:06:27;23.20;1.00
33903;DHT22;20194;50.950;5.346;2023-07-13T16:08:54;23.20;1.00
33903;DHT22;20194;50.950;5.346;2023-07-13T16:11:26;23.40;1.00
33903;DHT22;20194;50.950;5.346;2023-07-13T16:13:53;23.10;1.00
33903;DHT22;20194;50.950;5.346;2023-07-13T16:16:22;22.90;1.00
33903;DHT22;20194;50.950;5.346;2023-07-13T16:18:56;22.90;1.00
33903;DHT22;20194;50.950;5.346;2023-07-13T16:21:34;23.00;1.00
33903;DHT22;20194;50.950;5.346;2023-07-13T16:24:01;23.00;1.00
33903;DHT22;20194;50.950;5.346;2023-07-13T16:26:34;23.10;1.00
33903;DHT22;20194;50.950;5.346;2023-07-13T16:29:24;23.00;1.00
33903;DHT22;20194;50.950;5.346;2023-07-13T16:34:28;23.30;1.00